sensor_id;sensor_type;location;lat;lon;timestamp;temperature;humidity
15967;DHT22;15175;48.154;11.534;2023-01-23T00:02:18;-0.60;99.90
15967;DHT22;15175;48.154;11.534;2023-01-23T00:04:45;-0.50;99.90
15967;DHT22;15175;48.154;11.534;2023-01-23T00:07:14;-0.50;99.90
15967;DHT22;15175;48.154;11.534;2023-01-23T00:09:41;-0.50;99.90
15967;DHT22;15175;48.154;11.534;2023-01-23T00:12:08;-0.50;99.90
15967;DHT22;15175;48.154;11.534;2023-01-23T00:14:35;-0.50;99.90
15967;DHT22;15175;48.154;11.534;2023-01-23T00:17:02;-0.50;99.90
15967;DHT22;15175;48.154;11.534;2023-01-23T00:19:31;-0.60;99.90
15967;DHT22;15175;48.154;11.534;2023-01-23T00:21:58;-0.70;99.90
15967;DHT22;15175;48.154;11.534;2023-01-23T00:24:26;-0.70;99.90
15967;DHT22;15175;48.154;11.534;2023-01-23T00:26:54;-0.70;99.90
15967;DHT22;15175;48.154;11.534;2023-01-23T00:29:21;-0.80;99.90
15967;DHT22;15175;48.154;11.534;2023-01-23T00:31:48;-0.80;99.90
15967;DHT22;15175;48.154;11.534;2023-01-23T00:34:15;-0.80;99.90
15967;DHT22;15175;48.154;11.534;2023-01-23T00:36:44;-0.80;99.90
15967;DHT22;15175;48.154;11.534;2023-01-23T00:39:14;-0.80;99.90
15967;DHT22;15175;48.154;11.534;2023-01-23T00:41:43;-0.90;99.90
15967;DHT22;15175;48.154;11.534;2023-01-23T00:44:10;-1.00;99.90
15967;DHT22;15175;48.154;11.534;2023-01-23T00:46:37;-1.00;99.90
15967;DHT22;15175;48.154;11.534;2023-01-23T00:49:05;-0.90;99.90
15967;DHT22;15175;48.154;11.534;2023-01-23T00:51:32;-0.90;99.90
15967;DHT22;15175;48.154;11.534;2023-01-23T00:54:01;-0.90;99.90
15967;DHT22;15175;48.154;11.534;2023-01-23T00:56:28;-0.90;99.90
15967;DHT22;15175;48.154;11.534;2023-01-23T00:58:55;-1.00;99.90
15967;DHT22;15175;48.154;11.534;2023-01-23T01:01:22;-1.00;99.90
15967;DHT22;15175;48.154;11.534;2023-01-23T01:03:51;-1.00;99.90
15967;DHT22;15175;48.154;11.534;2023-01-23T01:06:18;-1.00;99.90
15967;DHT22;15175;48.154;11.534;2023-01-23T01:08:45;-1.10;99.90
15967;DHT22;15175;48.154;11.534;2023-01-23T01:11:13;-1.00;99.90
15967;DHT22;15175;48.154;11.534;2023-01-23T01:13:41;-1.00;99.90
15967;DHT22;15175;48.154;11.534;2023-01-23T01:16:09;-1.00;99.90
15967;DHT22;15175;48.154;11.534;2023-01-23T01:18:36;-0.90;99.90
15967;DHT22;15175;48.154;11.534;2023-01-23T01:21:06;-0.80;99.90
15967;DHT22;15175;48.154;11.534;2023-01-23T01:23:34;-0.80;99.90
15967;DHT22;15175;48.154;11.534;2023-01-23T01:26:01;-0.80;99.90
15967;DHT22;15175;48.154;11.534;2023-01-23T01:28:30;-0.80;99.90
15967;DHT22;15175;48.154;11.534;2023-01-23T01:31:02;-0.80;99.90
15967;DHT22;15175;48.154;11.534;2023-01-23T01:33:30;-0.80;99.90
15967;DHT22;15175;48.154;11.534;2023-01-23T01:35:57;-0.90;99.90
15967;DHT22;15175;48.154;11.534;2023-01-23T01:38:24;-0.90;99.90
15967;DHT22;15175;48.154;11.534;2023-01-23T01:40:51;-0.90;99.90
15967;DHT22;15175;48.154;11.534;2023-01-23T01:43:22;-0.90;99.90
15967;DHT22;15175;48.154;11.534;2023-01-23T01:46:17;-0.90;99.90
15967;DHT22;15175;48.154;11.534;2023-01-23T01:48:49;-0.80;99.90
15967;DHT22;15175;48.154;11.534;2023-01-23T01:51:20;-0.80;99.90
15967;DHT22;15175;48.154;11.534;2023-01-23T01:53:53;-0.80;99.90
15967;DHT22;15175;48.154;11.534;2023-01-23T01:56:21;-0.80;99.90
15967;DHT22;15175;48.154;11.534;2023-01-23T01:58:50;-0.80;99.90
15967;DHT22;15175;48.154;11.534;2023-01-23T02:01:20;-0.70;99.90
15967;DHT22;15175;48.154;11.534;2023-01-23T02:03:48;-0.70;99.90
15967;DHT22;15175;48.154;11.534;2023-01-23T02:06:16;-0.70;99.90
15967;DHT22;15175;48.154;11.534;2023-01-23T02:08:49;-0.70;99.90
15967;DHT22;15175;48.154;11.534;2023-01-23T02:11:18;-0.60;99.90
15967;DHT22;15175;48.154;11.534;2023-01-23T02:13:47;-0.60;99.90
15967;DHT22;15175;48.154;11.534;2023-01-23T02:16:16;-0.50;99.90
15967;DHT22;15175;48.154;11.534;2023-01-23T02:18:47;-0.60;99.90
15967;DHT22;15175;48.154;11.534;2023-01-23T02:21:16;-0.60;99.90
15967;DHT22;15175;48.154;11.534;2023-01-23T02:26:43;-0.60;99.90
15967;DHT22;15175;48.154;11.534;2023-01-23T02:29:12;-0.60;99.90
15967;DHT22;15175;48.154;11.534;2023-01-23T02:31:47;-0.60;99.90
15967;DHT22;15175;48.154;11.534;2023-01-23T02:34:18;-0.60;99.90
15967;DHT22;15175;48.154;11.534;2023-01-23T02:36:47;-0.60;99.90
15967;DHT22;15175;48.154;11.534;2023-01-23T02:39:17;-0.60;99.90
15967;DHT22;15175;48.154;11.534;2023-01-23T02:41:52;-0.50;99.90
15967;DHT22;15175;48.154;11.534;2023-01-23T02:44:25;-0.60;99.90
15967;DHT22;15175;48.154;11.534;2023-01-23T02:46:58;-0.60;99.90
15967;DHT22;15175;48.154;11.534;2023-01-23T02:49:26;-0.50;99.90
15967;DHT22;15175;48.154;11.534;2023-01-23T02:51:55;-0.60;99.90
15967;DHT22;15175;48.154;11.534;2023-01-23T02:54:23;-0.50;99.90
15967;DHT22;15175;48.154;11.534;2023-01-23T02:56:52;-0.40;99.90
15967;DHT22;15175;48.154;11.534;2023-01-23T02:59:21;-0.50;99.90
15967;DHT22;15175;48.154;11.534;2023-01-23T03:02:07;-0.40;99.90
15967;DHT22;15175;48.154;11.534;2023-01-23T03:04:34;-0.50;99.90
15967;DHT22;15175;48.154;11.534;2023-01-23T03:07:01;-0.50;99.90
15967;DHT22;15175;48.154;11.534;2023-01-23T03:09:28;-0.50;99.90
15967;DHT22;15175;48.154;11.534;2023-01-23T03:11:57;-0.50;99.90
15967;DHT22;15175;48.154;11.534;2023-01-23T03:14:25;-0.40;99.90
15967;DHT22;15175;48.154;11.534;2023-01-23T03:16:52;-0.50;99.90
15967;DHT22;15175;48.154;11.534;2023-01-23T03:19:23;-0.50;99.90
15967;DHT22;15175;48.154;11.534;2023-01-23T03:21:52;-0.40;99.90
15967;DHT22;15175;48.154;11.534;2023-01-23T03:24:19;-0.40;99.90
15967;DHT22;15175;48.154;11.534;2023-01-23T03:26:47;-0.40;99.90
15967;DHT22;15175;48.154;11.534;2023-01-23T03:29:19;-0.40;99.90
15967;DHT22;15175;48.154;11.534;2023-01-23T03:32:05;-0.40;99.90
15967;DHT22;15175;48.154;11.534;2023-01-23T03:34:32;-0.40;99.90
15967;DHT22;15175;48.154;11.534;2023-01-23T03:37:00;-0.40;99.90
15967;DHT22;15175;48.154;11.534;2023-01-23T03:39:30;-0.40;99.90
15967;DHT22;15175;48.154;11.534;2023-01-23T03:42:17;-0.40;99.90
15967;DHT22;15175;48.154;11.534;2023-01-23T03:44:47;-0.40;99.90
15967;DHT22;15175;48.154;11.534;2023-01-23T03:47:14;-0.30;99.90
15967;DHT22;15175;48.154;11.534;2023-01-23T03:49:42;-0.40;99.90
15967;DHT22;15175;48.154;11.534;2023-01-23T03:52:09;-0.40;99.90
15967;DHT22;15175;48.154;11.534;2023-01-23T03:54:37;-0.40;99.90
15967;DHT22;15175;48.154;11.534;2023-01-23T03:57:07;-0.40;99.90
15967;DHT22;15175;48.154;11.534;2023-01-23T03:59:48;-0.40;99.90
15967;DHT22;15175;48.154;11.534;2023-01-23T04:02:18;-0.40;99.90
15967;DHT22;15175;48.154;11.534;2023-01-23T04:04:46;-0.40;99.90
15967;DHT22;15175;48.154;11.534;2023-01-23T04:07:13;-0.40;99.90
15967;DHT22;15175;48.154;11.534;2023-01-23T04:09:42;-0.40;99.90
15967;DHT22;15175;48.154;11.534;2023-01-23T04:12:10;-0.40;99.90
15967;DHT22;15175;48.154;11.534;2023-01-23T04:14:44;-0.40;99.90
15967;DHT22;15175;48.154;11.534;2023-01-23T04:17:14;-0.40;99.90
15967;DHT22;15175;48.154;11.534;2023-01-23T04:19:41;-0.40;99.90
15967;DHT22;15175;48.154;11.534;2023-01-23T04:22:09;-0.40;99.90
15967;DHT22;15175;48.154;11.534;2023-01-23T04:24:45;-0.40;99.90
15967;DHT22;15175;48.154;11.534;2023-01-23T04:27:13;-0.40;99.90
15967;DHT22;15175;48.154;11.534;2023-01-23T04:29:40;-0.40;99.90
15967;DHT22;15175;48.154;11.534;2023-01-23T04:32:08;-0.50;99.90
15967;DHT22;15175;48.154;11.534;2023-01-23T04:34:41;-0.50;99.90
15967;DHT22;15175;48.154;11.534;2023-01-23T04:37:08;-0.50;99.90
15967;DHT22;15175;48.154;11.534;2023-01-23T04:39:35;-0.60;99.90
15967;DHT22;15175;48.154;11.534;2023-01-23T04:42:02;-0.50;99.90
15967;DHT22;15175;48.154;11.534;2023-01-23T04:45:09;-0.60;99.90
15967;DHT22;15175;48.154;11.534;2023-01-23T04:47:54;-0.60;99.90
15967;DHT22;15175;48.154;11.534;2023-01-23T04:50:23;-0.70;99.90
15967;DHT22;15175;48.154;11.534;2023-01-23T04:52:51;-0.60;99.90
15967;DHT22;15175;48.154;11.534;2023-01-23T04:55:18;-0.60;99.90
15967;DHT22;15175;48.154;11.534;2023-01-23T04:57:46;-0.60;99.90
15967;DHT22;15175;48.154;11.534;2023-01-23T05:00:33;-0.60;99.90
15967;DHT22;15175;48.154;11.534;2023-01-23T05:03:02;-0.70;99.90
15967;DHT22;15175;48.154;11.534;2023-01-23T05:05:31;-0.60;99.90
15967;DHT22;15175;48.154;11.534;2023-01-23T05:08:00;-0.60;99.90
15967;DHT22;15175;48.154;11.534;2023-01-23T05:10:28;-0.50;99.90
15967;DHT22;15175;48.154;11.534;2023-01-23T05:13:00;-0.50;99.90
15967;DHT22;15175;48.154;11.534;2023-01-23T05:15:27;-0.60;99.90
15967;DHT22;15175;48.154;11.534;2023-01-23T05:17:54;-0.60;99.90
15967;DHT22;15175;48.154;11.534;2023-01-23T05:20:21;-0.60;99.90
15967;DHT22;15175;48.154;11.534;2023-01-23T05:22:51;-0.60;99.90
15967;DHT22;15175;48.154;11.534;2023-01-23T05:25:23;-0.60;99.90
15967;DHT22;15175;48.154;11.534;2023-01-23T05:27:52;-0.50;99.90
15967;DHT22;15175;48.154;11.534;2023-01-23T05:30:21;-0.50;99.90
15967;DHT22;15175;48.154;11.534;2023-01-23T05:32:51;-0.50;99.90
15967;DHT22;15175;48.154;11.534;2023-01-23T05:35:20;-0.50;99.90
15967;DHT22;15175;48.154;11.534;2023-01-23T05:37:49;-0.60;99.90
15967;DHT22;15175;48.154;11.534;2023-01-23T05:40:20;-0.50;99.90
15967;DHT22;15175;48.154;11.534;2023-01-23T05:43:07;-0.50;99.90
15967;DHT22;15175;48.154;11.534;2023-01-23T05:45:34;-0.50;99.90
15967;DHT22;15175;48.154;11.534;2023-01-23T05:48:06;-0.50;99.90
15967;DHT22;15175;48.154;11.534;2023-01-23T05:50:33;-0.50;99.90
15967;DHT22;15175;48.154;11.534;2023-01-23T05:53:01;-0.40;99.90
15967;DHT22;15175;48.154;11.534;2023-01-23T05:55:29;-0.40;99.90
15967;DHT22;15175;48.154;11.534;2023-01-23T05:57:56;-0.40;99.90
15967;DHT22;15175;48.154;11.534;2023-01-23T06:00:55;-0.40;99.90
15967;DHT22;15175;48.154;11.534;2023-01-23T06:03:40;-0.50;99.90
15967;DHT22;15175;48.154;11.534;2023-01-23T06:06:28;-0.40;99.90
15967;DHT22;15175;48.154;11.534;2023-01-23T06:08:57;-0.40;99.90
15967;DHT22;15175;48.154;11.534;2023-01-23T06:11:24;-0.40;99.90
15967;DHT22;15175;48.154;11.534;2023-01-23T06:13:51;-0.30;99.90
15967;DHT22;15175;48.154;11.534;2023-01-23T06:16:18;-0.40;99.90
15967;DHT22;15175;48.154;11.534;2023-01-23T06:18:45;-0.40;99.90
15967;DHT22;15175;48.154;11.534;2023-01-23T06:21:14;-0.40;99.90
15967;DHT22;15175;48.154;11.534;2023-01-23T06:23:43;-0.40;99.90
15967;DHT22;15175;48.154;11.534;2023-01-23T06:26:12;-0.40;99.90
15967;DHT22;15175;48.154;11.534;2023-01-23T06:28:40;-0.50;99.90
15967;DHT22;15175;48.154;11.534;2023-01-23T06:31:07;-0.40;99.90
15967;DHT22;15175;48.154;11.534;2023-01-23T06:33:48;-0.40;99.90
15967;DHT22;15175;48.154;11.534;2023-01-23T06:36:17;-0.30;99.90
15967;DHT22;15175;48.154;11.534;2023-01-23T06:38:44;-0.30;99.90
15967;DHT22;15175;48.154;11.534;2023-01-23T06:41:13;-0.30;99.90
15967;DHT22;15175;48.154;11.534;2023-01-23T06:43:48;-0.30;99.90
15967;DHT22;15175;48.154;11.534;2023-01-23T06:46:20;-0.30;99.90
15967;DHT22;15175;48.154;11.534;2023-01-23T06:48:47;-0.30;99.90
15967;DHT22;15175;48.154;11.534;2023-01-23T06:51:14;-0.20;99.90
15967;DHT22;15175;48.154;11.534;2023-01-23T06:53:43;-0.20;99.90
15967;DHT22;15175;48.154;11.534;2023-01-23T06:56:12;-0.10;99.90
15967;DHT22;15175;48.154;11.534;2023-01-23T06:58:42;-0.10;99.90
15967;DHT22;15175;48.154;11.534;2023-01-23T07:01:18;-0.10;99.90
15967;DHT22;15175;48.154;11.534;2023-01-23T07:04:14;-0.10;99.90
15967;DHT22;15175;48.154;11.534;2023-01-23T07:06:43;-0.10;99.90
15967;DHT22;15175;48.154;11.534;2023-01-23T07:09:13;-0.20;99.90
15967;DHT22;15175;48.154;11.534;2023-01-23T07:11:45;-0.10;99.90
15967;DHT22;15175;48.154;11.534;2023-01-23T07:14:12;-0.10;99.90
15967;DHT22;15175;48.154;11.534;2023-01-23T07:16:41;-0.20;99.90
15967;DHT22;15175;48.154;11.534;2023-01-23T07:19:08;-0.10;99.90
15967;DHT22;15175;48.154;11.534;2023-01-23T07:21:38;-0.20;99.90
15967;DHT22;15175;48.154;11.534;2023-01-23T07:24:05;-0.10;99.90
15967;DHT22;15175;48.154;11.534;2023-01-23T07:26:32;-0.10;99.90
15967;DHT22;15175;48.154;11.534;2023-01-23T07:29:01;-0.10;99.90
15967;DHT22;15175;48.154;11.534;2023-01-23T07:31:28;-0.10;99.90
15967;DHT22;15175;48.154;11.534;2023-01-23T07:33:55;-0.10;99.90
15967;DHT22;15175;48.154;11.534;2023-01-23T07:36:22;-0.20;99.90
15967;DHT22;15175;48.154;11.534;2023-01-23T07:38:49;-0.10;99.90
15967;DHT22;15175;48.154;11.534;2023-01-23T07:41:16;-0.10;99.90
15967;DHT22;15175;48.154;11.534;2023-01-23T07:43:43;-0.10;99.90
15967;DHT22;15175;48.154;11.534;2023-01-23T07:46:11;-0.20;99.90
15967;DHT22;15175;48.154;11.534;2023-01-23T07:48:38;-0.10;99.90
15967;DHT22;15175;48.154;11.534;2023-01-23T07:51:06;-0.10;99.90
15967;DHT22;15175;48.154;11.534;2023-01-23T07:53:33;-0.10;99.90
15967;DHT22;15175;48.154;11.534;2023-01-23T07:56:03;0.00;99.90
15967;DHT22;15175;48.154;11.534;2023-01-23T07:58:31;0.00;99.90
15967;DHT22;15175;48.154;11.534;2023-01-23T08:00:58;0.00;99.90
15967;DHT22;15175;48.154;11.534;2023-01-23T08:03:26;0.00;99.90
15967;DHT22;15175;48.154;11.534;2023-01-23T08:05:54;0.10;99.90
15967;DHT22;15175;48.154;11.534;2023-01-23T08:08:21;0.10;99.90
15967;DHT22;15175;48.154;11.534;2023-01-23T08:10:48;0.10;99.90
15967;DHT22;15175;48.154;11.534;2023-01-23T08:13:15;0.10;99.90
15967;DHT22;15175;48.154;11.534;2023-01-23T08:15:42;0.00;99.90
15967;DHT22;15175;48.154;11.534;2023-01-23T08:18:11;0.10;99.90
15967;DHT22;15175;48.154;11.534;2023-01-23T08:20:39;0.10;99.90
15967;DHT22;15175;48.154;11.534;2023-01-23T08:23:06;0.10;99.90
15967;DHT22;15175;48.154;11.534;2023-01-23T08:25:33;0.10;99.90
15967;DHT22;15175;48.154;11.534;2023-01-23T08:28:00;0.10;99.90
15967;DHT22;15175;48.154;11.534;2023-01-23T08:30:27;0.10;99.90
15967;DHT22;15175;48.154;11.534;2023-01-23T08:32:54;0.10;99.90
15967;DHT22;15175;48.154;11.534;2023-01-23T08:35:21;0.10;99.90
15967;DHT22;15175;48.154;11.534;2023-01-23T08:37:50;0.20;99.90
15967;DHT22;15175;48.154;11.534;2023-01-23T08:40:17;0.20;99.90
15967;DHT22;15175;48.154;11.534;2023-01-23T08:42:44;0.10;99.90
15967;DHT22;15175;48.154;11.534;2023-01-23T08:45:11;0.20;99.90
15967;DHT22;15175;48.154;11.534;2023-01-23T08:47:38;0.20;99.90
15967;DHT22;15175;48.154;11.534;2023-01-23T08:50:06;0.40;99.90
15967;DHT22;15175;48.154;11.534;2023-01-23T08:52:33;0.20;99.90
15967;DHT22;15175;48.154;11.534;2023-01-23T08:55:02;0.20;99.90
15967;DHT22;15175;48.154;11.534;2023-01-23T08:57:29;0.30;99.90
15967;DHT22;15175;48.154;11.534;2023-01-23T08:59:56;0.30;99.90
15967;DHT22;15175;48.154;11.534;2023-01-23T09:02:23;0.30;99.90
15967;DHT22;15175;48.154;11.534;2023-01-23T09:04:50;0.20;99.90
15967;DHT22;15175;48.154;11.534;2023-01-23T09:07:17;0.30;99.90
15967;DHT22;15175;48.154;11.534;2023-01-23T09:09:44;0.30;99.90
15967;DHT22;15175;48.154;11.534;2023-01-23T09:12:13;0.30;99.90
15967;DHT22;15175;48.154;11.534;2023-01-23T09:14:40;0.30;99.90
15967;DHT22;15175;48.154;11.534;2023-01-23T09:17:07;0.40;99.90
15967;DHT22;15175;48.154;11.534;2023-01-23T09:19:34;0.60;99.90
15967;DHT22;15175;48.154;11.534;2023-01-23T09:22:01;0.50;99.90
15967;DHT22;15175;48.154;11.534;2023-01-23T09:24:29;0.40;99.90
15967;DHT22;15175;48.154;11.534;2023-01-23T09:26:56;0.40;99.90
15967;DHT22;15175;48.154;11.534;2023-01-23T09:29:25;0.30;99.90
15967;DHT22;15175;48.154;11.534;2023-01-23T09:31:52;0.40;99.90
15967;DHT22;15175;48.154;11.534;2023-01-23T09:34:19;0.40;99.90
15967;DHT22;15175;48.154;11.534;2023-01-23T09:36:46;0.40;99.90
15967;DHT22;15175;48.154;11.534;2023-01-23T09:39:13;0.40;99.90
15967;DHT22;15175;48.154;11.534;2023-01-23T09:41:40;0.50;99.90
15967;DHT22;15175;48.154;11.534;2023-01-23T09:44:13;0.50;99.90
15967;DHT22;15175;48.154;11.534;2023-01-23T09:46:46;0.60;99.90
15967;DHT22;15175;48.154;11.534;2023-01-23T09:49:19;0.60;99.90
15967;DHT22;15175;48.154;11.534;2023-01-23T09:51:55;0.50;99.90
15967;DHT22;15175;48.154;11.534;2023-01-23T09:54:32;0.50;99.90
15967;DHT22;15175;48.154;11.534;2023-01-23T09:57:13;0.50;99.90
15967;DHT22;15175;48.154;11.534;2023-01-23T09:59:44;0.60;99.90
15967;DHT22;15175;48.154;11.534;2023-01-23T10:02:16;0.60;99.90
15967;DHT22;15175;48.154;11.534;2023-01-23T10:04:45;0.20;99.90
15967;DHT22;15175;48.154;11.534;2023-01-23T10:07:39;0.40;99.90
15967;DHT22;15175;48.154;11.534;2023-01-23T10:10:31;0.50;99.90
15967;DHT22;15175;48.154;11.534;2023-01-23T10:13:14;0.50;99.90
15967;DHT22;15175;48.154;11.534;2023-01-23T10:16:01;0.50;99.90
15967;DHT22;15175;48.154;11.534;2023-01-23T10:18:36;0.50;99.90
15967;DHT22;15175;48.154;11.534;2023-01-23T10:21:12;0.50;99.90
15967;DHT22;15175;48.154;11.534;2023-01-23T10:23:49;0.50;99.90
15967;DHT22;15175;48.154;11.534;2023-01-23T10:26:21;0.50;99.90
15967;DHT22;15175;48.154;11.534;2023-01-23T10:28:52;0.60;99.90
15967;DHT22;15175;48.154;11.534;2023-01-23T10:31:37;0.60;99.90
15967;DHT22;15175;48.154;11.534;2023-01-23T10:34:13;0.60;99.90
15967;DHT22;15175;48.154;11.534;2023-01-23T10:36:47;0.60;99.90
15967;DHT22;15175;48.154;11.534;2023-01-23T10:39:19;0.60;99.90
15967;DHT22;15175;48.154;11.534;2023-01-23T10:41:48;0.50;99.90
15967;DHT22;15175;48.154;11.534;2023-01-23T10:44:18;0.60;99.90
15967;DHT22;15175;48.154;11.534;2023-01-23T10:46:47;0.50;99.90
15967;DHT22;15175;48.154;11.534;2023-01-23T10:49:28;0.60;99.90
15967;DHT22;15175;48.154;11.534;2023-01-23T10:51:56;0.50;99.90
15967;DHT22;15175;48.154;11.534;2023-01-23T10:54:24;0.60;99.90
15967;DHT22;15175;48.154;11.534;2023-01-23T10:56:54;0.50;99.90
15967;DHT22;15175;48.154;11.534;2023-01-23T10:59:34;0.50;99.90
15967;DHT22;15175;48.154;11.534;2023-01-23T11:02:25;0.60;99.90
15967;DHT22;15175;48.154;11.534;2023-01-23T11:04:54;0.60;99.90
15967;DHT22;15175;48.154;11.534;2023-01-23T11:07:23;0.60;99.90
15967;DHT22;15175;48.154;11.534;2023-01-23T11:09:53;0.70;99.90
15967;DHT22;15175;48.154;11.534;2023-01-23T11:12:23;0.70;99.90
15967;DHT22;15175;48.154;11.534;2023-01-23T11:14:51;0.80;99.90
15967;DHT22;15175;48.154;11.534;2023-01-23T11:17:21;0.80;99.90
15967;DHT22;15175;48.154;11.534;2023-01-23T11:19:50;0.90;99.90
15967;DHT22;15175;48.154;11.534;2023-01-23T11:22:38;0.80;99.90
15967;DHT22;15175;48.154;11.534;2023-01-23T11:25:28;0.90;99.90
15967;DHT22;15175;48.154;11.534;2023-01-23T11:27:57;1.00;99.90
15967;DHT22;15175;48.154;11.534;2023-01-23T11:30:33;0.90;99.90
15967;DHT22;15175;48.154;11.534;2023-01-23T11:33:10;0.90;99.90
15967;DHT22;15175;48.154;11.534;2023-01-23T11:35:51;0.90;99.90
15967;DHT22;15175;48.154;11.534;2023-01-23T11:38:25;0.90;99.90
15967;DHT22;15175;48.154;11.534;2023-01-23T11:40:52;0.90;99.90
15967;DHT22;15175;48.154;11.534;2023-01-23T11:43:19;0.90;99.90
15967;DHT22;15175;48.154;11.534;2023-01-23T11:48:51;0.80;99.90
15967;DHT22;15175;48.154;11.534;2023-01-23T11:51:27;0.90;99.90
15967;DHT22;15175;48.154;11.534;2023-01-23T11:54:05;1.00;99.90
15967;DHT22;15175;48.154;11.534;2023-01-23T11:57:00;1.00;99.90
15967;DHT22;15175;48.154;11.534;2023-01-23T11:59:40;1.00;99.90
15967;DHT22;15175;48.154;11.534;2023-01-23T12:02:40;1.00;99.90
15967;DHT22;15175;48.154;11.534;2023-01-23T12:05:28;1.00;99.90
15967;DHT22;15175;48.154;11.534;2023-01-23T12:08:10;1.00;99.90
15967;DHT22;15175;48.154;11.534;2023-01-23T12:10:52;1.00;99.90
15967;DHT22;15175;48.154;11.534;2023-01-23T12:13:40;1.00;99.90
15967;DHT22;15175;48.154;11.534;2023-01-23T12:16:19;1.00;99.90
15967;DHT22;15175;48.154;11.534;2023-01-23T12:19:03;0.90;99.90
15967;DHT22;15175;48.154;11.534;2023-01-23T12:21:37;1.00;99.90
15967;DHT22;15175;48.154;11.534;2023-01-23T12:24:29;1.00;99.90
15967;DHT22;15175;48.154;11.534;2023-01-23T12:27:04;1.10;99.90
15967;DHT22;15175;48.154;11.534;2023-01-23T12:32:49;1.20;99.90
15967;DHT22;15175;48.154;11.534;2023-01-23T12:35:29;1.20;99.90
15967;DHT22;15175;48.154;11.534;2023-01-23T12:38:09;1.20;99.90
15967;DHT22;15175;48.154;11.534;2023-01-23T12:40:43;1.20;99.90
15967;DHT22;15175;48.154;11.534;2023-01-23T12:43:17;1.30;99.90
15967;DHT22;15175;48.154;11.534;2023-01-23T12:45:50;1.30;99.90
15967;DHT22;15175;48.154;11.534;2023-01-23T12:48:21;1.30;99.90
15967;DHT22;15175;48.154;11.534;2023-01-23T12:50:56;1.40;99.90
15967;DHT22;15175;48.154;11.534;2023-01-23T12:53:27;1.40;99.90
15967;DHT22;15175;48.154;11.534;2023-01-23T12:56:02;1.40;99.90
15967;DHT22;15175;48.154;11.534;2023-01-23T12:58:34;1.40;99.90
15967;DHT22;15175;48.154;11.534;2023-01-23T13:01:14;1.40;99.90
15967;DHT22;15175;48.154;11.534;2023-01-23T13:03:54;1.40;99.90
15967;DHT22;15175;48.154;11.534;2023-01-23T13:06:40;1.50;99.90
15967;DHT22;15175;48.154;11.534;2023-01-23T13:09:17;1.50;99.90
15967;DHT22;15175;48.154;11.534;2023-01-23T13:11:55;1.50;99.90
15967;DHT22;15175;48.154;11.534;2023-01-23T13:14:37;1.50;99.90
15967;DHT22;15175;48.154;11.534;2023-01-23T13:17:28;1.50;99.90
15967;DHT22;15175;48.154;11.534;2023-01-23T13:20:20;1.50;99.90
15967;DHT22;15175;48.154;11.534;2023-01-23T13:23:23;1.50;99.90
15967;DHT22;15175;48.154;11.534;2023-01-23T13:26:23;1.50;99.90
15967;DHT22;15175;48.154;11.534;2023-01-23T13:28:55;1.60;99.90
15967;DHT22;15175;48.154;11.534;2023-01-23T13:34:36;1.60;99.90
15967;DHT22;15175;48.154;11.534;2023-01-23T13:40:15;1.40;99.90
15967;DHT22;15175;48.154;11.534;2023-01-23T13:42:44;1.50;99.90
15967;DHT22;15175;48.154;11.534;2023-01-23T13:48:32;1.50;99.90
15967;DHT22;15175;48.154;11.534;2023-01-23T13:51:22;1.40;99.90
15967;DHT22;15175;48.154;11.534;2023-01-23T13:53:50;1.40;99.90
15967;DHT22;15175;48.154;11.534;2023-01-23T13:56:38;1.50;99.90
15967;DHT22;15175;48.154;11.534;2023-01-23T13:59:11;1.50;99.90
15967;DHT22;15175;48.154;11.534;2023-01-23T14:01:54;1.50;99.90
15967;DHT22;15175;48.154;11.534;2023-01-23T14:04:43;1.60;99.90
15967;DHT22;15175;48.154;11.534;2023-01-23T14:07:33;1.60;99.90
15967;DHT22;15175;48.154;11.534;2023-01-23T14:10:20;1.60;99.90
15967;DHT22;15175;48.154;11.534;2023-01-23T14:12:48;1.60;99.90
15967;DHT22;15175;48.154;11.534;2023-01-23T14:15:20;1.60;99.90
15967;DHT22;15175;48.154;11.534;2023-01-23T14:18:14;1.70;99.90
15967;DHT22;15175;48.154;11.534;2023-01-23T14:20:44;1.70;99.90
15967;DHT22;15175;48.154;11.534;2023-01-23T14:23:33;1.80;99.90
15967;DHT22;15175;48.154;11.534;2023-01-23T14:26:02;1.80;99.90
15967;DHT22;15175;48.154;11.534;2023-01-23T14:28:30;1.80;99.90
15967;DHT22;15175;48.154;11.534;2023-01-23T14:30:59;1.80;99.90
15967;DHT22;15175;48.154;11.534;2023-01-23T14:33:27;1.80;99.90
15967;DHT22;15175;48.154;11.534;2023-01-23T14:35:56;1.80;99.90
15967;DHT22;15175;48.154;11.534;2023-01-23T14:38:29;1.80;99.90
15967;DHT22;15175;48.154;11.534;2023-01-23T14:40:58;1.80;99.90
15967;DHT22;15175;48.154;11.534;2023-01-23T14:43:28;1.80;99.90
15967;DHT22;15175;48.154;11.534;2023-01-23T14:46:00;1.80;99.90
15967;DHT22;15175;48.154;11.534;2023-01-23T14:48:31;1.80;99.90
15967;DHT22;15175;48.154;11.534;2023-01-23T14:51:06;2.00;99.90
15967;DHT22;15175;48.154;11.534;2023-01-23T14:53:38;1.90;99.90
15967;DHT22;15175;48.154;11.534;2023-01-23T14:56:07;1.90;99.90
15967;DHT22;15175;48.154;11.534;2023-01-23T14:58:35;1.80;99.90
15967;DHT22;15175;48.154;11.534;2023-01-23T15:01:03;1.80;99.90
15967;DHT22;15175;48.154;11.534;2023-01-23T15:03:36;1.80;99.90
15967;DHT22;15175;48.154;11.534;2023-01-23T15:06:09;1.80;99.90
15967;DHT22;15175;48.154;11.534;2023-01-23T15:08:37;1.80;99.90
15967;DHT22;15175;48.154;11.534;2023-01-23T15:11:05;1.80;99.90
15967;DHT22;15175;48.154;11.534;2023-01-23T15:13:45;1.80;99.90
15967;DHT22;15175;48.154;11.534;2023-01-23T15:16:18;1.80;99.90
15967;DHT22;15175;48.154;11.534;2023-01-23T15:18:59;1.80;99.90
15967;DHT22;15175;48.154;11.534;2023-01-23T15:21:31;1.80;99.90
15967;DHT22;15175;48.154;11.534;2023-01-23T15:24:05;1.80;99.90
15967;DHT22;15175;48.154;11.534;2023-01-23T15:26:43;1.80;99.90
15967;DHT22;15175;48.154;11.534;2023-01-23T15:29:18;1.80;99.90
15967;DHT22;15175;48.154;11.534;2023-01-23T15:31:47;1.80;99.90
15967;DHT22;15175;48.154;11.534;2023-01-23T15:34:22;1.80;99.90
15967;DHT22;15175;48.154;11.534;2023-01-23T15:36:56;1.80;99.90
15967;DHT22;15175;48.154;11.534;2023-01-23T15:39:27;1.70;99.90
15967;DHT22;15175;48.154;11.534;2023-01-23T15:41:57;1.70;99.90
15967;DHT22;15175;48.154;11.534;2023-01-23T15:44:26;1.80;99.90
15967;DHT22;15175;48.154;11.534;2023-01-23T15:46:54;1.70;99.90
15967;DHT22;15175;48.154;11.534;2023-01-23T15:49:21;1.70;99.90
15967;DHT22;15175;48.154;11.534;2023-01-23T15:51:48;1.70;99.90
15967;DHT22;15175;48.154;11.534;2023-01-23T15:54:23;1.70;99.90
15967;DHT22;15175;48.154;11.534;2023-01-23T15:56:52;1.70;99.90
15967;DHT22;15175;48.154;11.534;2023-01-23T15:59:19;1.70;99.90
15967;DHT22;15175;48.154;11.534;2023-01-23T16:01:46;1.60;99.90
15967;DHT22;15175;48.154;11.534;2023-01-23T16:04:13;1.70;99.90
15967;DHT22;15175;48.154;11.534;2023-01-23T16:06:43;1.70;99.90
15967;DHT22;15175;48.154;11.534;2023-01-23T16:09:25;1.60;99.90
15967;DHT22;15175;48.154;11.534;2023-01-23T16:11:55;1.60;99.90